Syracuse, NE

4:56 AM CST on December 06, 2019 (GMT -0600)
Hawkins Home - Northeast | | Change Station
Active Advisory: Flood Warning

Elev 1100 ft 40.66 °N, 96.18 °W | Updated 2 seconds ago

Overcast
Overcast
28.6 °F
Feels Like 19 °F
N
11.5
Wind Variable Wind from North
Gusts 8.8 mph

Today
High -- | Low -- °F
--% Chance of Precip.
Yesterday
High -- | Low -- °F
Precip. -- in
Pressure 30.30 in
Visibility 10.0 miles
Clouds Overcast 1500 ft
Windchill 19 °F
Dew Point 24 °F
Humidity 84%
Rainfall 0.00 in
Snow Depth Not available.
7:33 AM 4:57 PM
Waxing Gibbous, 70% visible
METAR KAFK 061035Z AUTO 01012G19KT 10SM OVC015 00/M02 A3030 RMK AO2 T00001022
Pressure 30.30 in
Visibility 10.0 miles
Clouds Overcast 1500 ft
Windchill 19 °F
Dew Point 24 °F
Humidity 84%
Rainfall 0.00 in
Snow Depth Not available.
7:33 AM 4:57 PM
Waxing Gibbous, 70% visible
METAR KAFK 061035Z AUTO 01012G19KT 10SM OVC015 00/M02 A3030 RMK AO2 T00001022

Get Your Daily Forecast Email!

Thanks for signing up!

Be on the lookout for a verification email in your inbox.

You'll start receiving severe weather alerts in your inbox..

×

10-Day Weather Forecast

Almanac

Astronomy

Dec. 06, 2019 Rise Set
Actual Time
Civil Twilight
Nautical Twilight
Astronomical Twilight
Moon
Length of Visible Light
Length of Day
Tomorrow will be .
, % of the Moon is Illuminated

Today's Extremes

State Highs State Lows

Community

WunderPhotos

Category 6

Welcome to Category 6. This is the collective home for Weather Underground's featured writeups by Dr. Jeff Masters (right), Bob Henson (left), Chris Burt, and other regular contributors.

Nearby

Air Quality

  Air Quality AQ Index Pollutant
Not available.

Snow Depth

Station Depth Elevation

Earthquake Activity

City Distance Mag. Time & Date
Minimum magnitude displayed is 2.5.

Coastal Water Temperatures

Place Temperature

Stations

Nearby Weather Stations

Station Location Temp. Windchill Dew Point Humidity Wind Precip. Elev Updated Type
                   

Watches & Warnings

Flood Warning
Issued: 7:35 PM CST Dec. 5, 2019 – National Weather Service

The Flood Warning continues for
the Missouri River at Nebraska City.
* At 7:00 PM Thursday the stage was 19.0 feet... or 1.0 feet above
flood stage.
* Flood stage is 18.0 feet.
* Minor flooding is occurring and minor flooding is forecast.
* Forecast... the river will continue to fall to below flood stage by
Sunday evening.



Lat... Lon 4078 9587 4078 9572 4048 9554 4048 9580
      4074 9590